Hovedside
METAR-TAF:

METAR-TAF

Lufthavner :

Kuressaare, Estland

Kuressaare lufthavn

breddegrad: 58-13-48N, lengdegrad: 022-30-34E, høyde over havet: 4 m

Gjeldene værobservasjon

Denne rapporten ble laget for 55 minutter siden, klokken 06:50 UTC
Vind 8 kt fra Sørøst
Temperatur 4°C
Luftfuktighet 70%
Trykk 1030 hPa
Sikt 10 km eller mer
Brutte skyer i en høyde av 2700 ft

METAR: EEKE 240650Z 13008KT 9999 BKN027 04/M01 Q1030

Tid: 10:45 (07:45 UTC)

Varsel

Denne rapporten ble laget for 2 timer og 45 minutter siden, klokken 05:00 UTC
Varsel gyldig fra 24. klokken 06 UTC til 24. klokken 12 UTC
Vind 12 kt fra Øst-sørøst
Sikt 10 km eller mer
Spredte skyer i en høyde av 3000 ft

TAF: EEKE 240500Z 2406/2412 12012KT 9999 SCT030

Værobservasjoner og værvarsel for over 4000 flyplasser (METAR- og TAF-rapporter).

Tilgjengelige stasjoner er representert av de røde og gule prikkene på kartet.

Hold musepekeren over prikken for å se navnet på stasjonen.

Klikk så for å se værobservasjoner og -varsler.

For å forandre kartet kan du klikke på den grønne knappen med svart kryss for å zoome inn, på den grønne knappen med strek for å zoome ut, eller på de grønne pilene for å se tilstøtende kart.


METAR-TAF: